Latest Weather Observations for Sydney Harbour

IDN60901

Issued at 11:25 pm EST Thursday 31 July 2014 (issued every 10 minutes, with the page automatically refreshed every 10 minutes)

About weather observations | Map of Sydney area stations | Latest observations for Sydney area | Other Formats
Station Details ID: 066196 Name: WEDDING CAKE WEST Lat: -33.84 Lon: 151.26 Height: 6.0 m
Data from the previous 72 hours. | See also: Recent months for locations in New South Wales
Date/Time
EST
Tmp

°C
App
Tmp
°C
Dew
Point
°C
Rel
Hum
%
Delta-T

°C
Wind Press
QNH
hPa
Press
MSL
hPa
Rain
since
9 am
mm
Dir
 
Spd
km/h
Gust
km/h
Spd
kts
Gust
kts
31/11:00pm 18.8 - - - - N 15 20 8 11 - - -
31/10:30pm 19.5 - - - - N 19 26 10 14 - - -
31/10:00pm 19.5 - - - - N 20 26 11 14 - - -
31/09:30pm 19.6 - - - - N 20 28 11 15 - - -
31/09:00pm 20.4 - - - - N 26 37 14 20 - - -
31/08:30pm 20.8 - - - - N 32 43 17 23 - - -
31/08:20pm 21.1 - - - - N 28 52 15 28 - - -
31/08:00pm 21.1 - - - - N 30 41 16 22 - - -
31/07:30pm 21.6 - - - - N 24 33 13 18 - - -
31/07:00pm 22.0 - - - - NNW 26 39 14 21 - - -
31/06:30pm 21.9 - - - - N 30 41 16 22 - - -
31/06:00pm 22.5 - - - - N 26 39 14 21 - - -
31/05:30pm 23.0 - - - - NNW 24 35 13 19 - - -
31/05:09pm 23.1 - - - - N 28 46 15 25 - - -
31/05:00pm 23.4 - - - - NNW 33 46 18 25 - - -
31/04:30pm 23.9 - - - - N 32 50 17 27 - - -
31/04:00pm 24.0 - - - - NNW 30 48 16 26 - - -
31/03:32pm 23.9 - - - - NNW 32 59 17 32 - - -
31/03:30pm 24.0 - - - - NNW 30 46 16 25 - - -
31/03:03pm 23.9 - - - - NNW 28 48 15 26 - - -
31/03:00pm 23.9 - - - - NNW 28 43 15 23 - - -
31/02:36pm 23.7 - - - - N 35 54 19 29 - - -
31/02:30pm 23.6 - - - - NNW 35 50 19 27 - - -
31/02:14pm 23.5 - - - - NNW 28 48 15 26 - - -
31/02:00pm 23.7 - - - - NW 28 39 15 21 - - -
31/01:34pm 23.1 - - - - NNW 30 50 16 27 - - -
31/01:30pm 23.1 - - - - N 30 43 16 23 - - -
31/01:11pm 23.0 - - - - NNW 28 48 15 26 - - -
31/01:00pm 22.8 - - - - NNW 30 43 16 23 - - -
31/12:30pm 22.6 - - - - N 33 54 18 29 - - -
31/12:26pm 22.3 - - - - N 28 48 15 26 - - -
31/12:00pm 21.6 - - - - N 26 41 14 22 - - -
31/11:30am 21.0 - - - - N 30 39 16 21 - - -
31/11:00am 20.5 - - - - N 24 32 13 17 - - -
31/10:30am 20.0 - - - - N 26 37 14 20 - - -
31/10:00am 18.9 - - - - N 26 32 14 17 - - -
31/09:30am 18.3 - - - - N 28 39 15 21 - - -
31/09:00am 17.9 - - - - N 20 30 11 16 - - -
31/08:30am 17.1 - - - - N 20 30 11 16 - - -
31/08:00am 15.6 - - - - N 19 20 10 11 - - -
31/07:30am 15.2 - - - - N 22 24 12 13 - - -
31/07:00am 15.5 - - - - N 19 20 10 11 - - -
31/06:30am 15.6 - - - - N 19 20 10 11 - - -
31/06:00am 15.8 - - - - N 15 24 8 13 - - -
31/05:30am 16.0 - - - - N 15 19 8 10 - - -
31/05:00am 16.0 - - - - N 15 20 8 11 - - -
31/04:30am 16.2 - - - - N 13 17 7 9 - - -
31/04:00am 16.1 - - - - N 15 19 8 10 - - -
31/03:30am 16.2 - - - - N 13 19 7 10 - - -
31/03:00am 16.5 - - - - NNW 20 26 11 14 - - -
31/02:30am 16.6 - - - - NNW 20 28 11 15 - - -
31/02:00am 16.8 - - - - NNW 20 32 11 17 - - -
31/01:30am 16.6 - - - - NNW 17 24 9 13 - - -
31/01:00am 16.7 - - - - NNW 19 26 10 14 - - -
31/12:30am 17.0 - - - - NNW 20 28 11 15 - - -
31/12:00am 16.9 - - - - NNW 19 26 10 14 - - -
 
Date/Time
EST
Tmp

°C
App
Tmp
°C
Dew
Point
°C
Rel
Hum
%
Delta-T

°C
Wind Press
QNH
hPa
Press
MSL
hPa
Rain
since
9 am
mm
Dir
 
Spd
km/h
Gust
km/h
Spd
kts
Gust
kts
30/11:30pm 16.7 - - - - NNW 17 26 9 14 - - -
30/11:00pm 16.9 - - - - N 15 20 8 11 - - -
30/10:30pm 17.2 - - - - NNW 17 22 9 12 - - -
30/10:00pm 17.7 - - - - NNW 15 20 8 11 - - -
30/09:30pm 17.3 - - - - N 13 15 7 8 - - -
30/09:00pm 17.8 - - - - N 13 15 7 8 - - -
30/08:30pm 18.8 - - - - NW 17 22 9 12 - - -
30/08:00pm 19.0 - - - - NW 13 17 7 9 - - -
30/07:30pm 19.4 - - - - WNW 22 30 12 16 - - -
30/07:00pm 19.8 - - - - WNW 22 28 12 15 - - -
30/06:30pm 20.1 - - - - W 24 30 13 16 - - -
30/06:00pm 20.4 - - - - W 28 39 15 21 - - -
30/05:30pm 20.6 - - - - W 28 37 15 20 - - -
30/05:00pm 20.7 - - - - WNW 26 37 14 20 - - -
30/04:30pm 21.6 - - - - WNW 26 35 14 19 - - -
30/04:00pm 22.0 - - - - WNW 22 35 12 19 - - -
30/03:30pm 22.3 - - - - WNW 24 35 13 19 - - -
30/03:00pm 22.2 - - - - WNW 22 33 12 18 - - -
30/02:30pm 22.1 - - - - NW 26 41 14 22 - - -
30/02:00pm 22.1 - - - - W 26 32 14 17 - - -
30/01:30pm 22.2 - - - - WNW 26 39 14 21 - - -
30/01:00pm 21.9 - - - - W 17 32 9 17 - - -
30/12:30pm 21.0 - - - - W 17 26 9 14 - - -
30/12:00pm 19.8 - - - - WSW 17 24 9 13 - - -
30/11:30am 19.7 - - - - SW 19 26 10 14 - - -
30/11:00am 19.7 - - - - WSW 22 33 12 18 - - -
30/10:30am 19.5 - - - - W 20 30 11 16 - - -
30/10:00am 19.0 - - - - WNW 22 33 12 18 - - -
30/09:30am 18.4 - - - - NNW 13 20 7 11 - - -
30/09:00am 17.8 - - - - NW 17 24 9 13 - - -
30/08:30am 17.1 - - - - NW 20 39 11 21 - - -
30/08:00am 16.5 - - - - NW 22 30 12 16 - - -
30/07:30am 15.9 - - - - WNW 24 33 13 18 - - -
30/07:00am 15.6 - - - - N 11 19 6 10 - - -
30/06:30am 16.2 - - - - NNW 17 20 9 11 - - -
30/06:00am 16.3 - - - - NNW 6 9 3 5 - - -
30/05:30am 16.0 - - - - NW 11 17 6 9 - - -
30/05:00am 15.7 - - - - S 7 11 4 6 - - -
30/04:30am 16.0 - - - - NNW 15 26 8 14 - - -
30/04:00am 15.7 - - - - NNW 22 32 12 17 - - -
30/03:30am 15.6 - - - - NNW 24 32 13 17 - - -
30/03:00am 15.7 - - - - NNW 24 30 13 16 - - -
30/02:30am 16.0 - - - - NNW 24 32 13 17 - - -
30/02:00am 16.3 - - - - NNW 24 28 13 15 - - -
30/01:30am 16.5 - - - - N 22 32 12 17 - - -
30/01:00am 16.7 - - - - N 22 26 12 14 - - -
30/12:30am 16.9 - - - - N 22 28 12 15 - - -
30/12:00am 17.3 - - - - N 22 32 12 17 - - -
 
Date/Time
EST
Tmp

°C
App
Tmp
°C
Dew
Point
°C
Rel
Hum
%
Delta-T

°C
Wind Press
QNH
hPa
Press
MSL
hPa
Rain
since
9 am
mm
Dir
 
Spd
km/h
Gust
km/h
Spd
kts
Gust
kts
29/11:30pm 17.3 - - - - N 22 32 12 17 - - -
29/11:00pm 17.5 - - - - N 24 33 13 18 - - -
29/10:30pm 17.6 - - - - N 22 30 12 16 - - -
29/10:00pm 17.5 - - - - N 19 26 10 14 - - -
29/09:30pm 17.4 - - - - N 13 17 7 9 - - -
29/09:00pm 17.5 - - - - N 11 15 6 8 - - -
29/08:30pm 18.3 - - - - NNW 19 24 10 13 - - -
29/08:00pm 18.7 - - - - NW 17 24 9 13 - - -
29/07:30pm 19.1 - - - - NNW 15 20 8 11 - - -
29/07:00pm 19.4 - - - - NW 13 19 7 10 - - -
29/06:30pm 19.9 - - - - NW 11 22 6 12 - - -
29/06:00pm 20.4 - - - - NW 15 24 8 13 - - -
29/05:30pm 20.9 - - - - NW 11 20 6 11 - - -
29/05:00pm 21.3 - - - - NW 13 26 7 14 - - -
29/04:30pm 22.2 - - - - NW 15 20 8 11 - - -
29/04:00pm 22.4 - - - - WNW 22 33 12 18 - - -
29/03:30pm 20.8 - - - - N 24 35 13 19 - - -
29/03:00pm 20.4 - - - - N 26 32 14 17 - - -
29/02:30pm 20.5 - - - - N 28 37 15 20 - - -
29/02:00pm 20.1 - - - - N 26 35 14 19 - - -
29/01:30pm 19.8 - - - - N 22 33 12 18 - - -
29/01:00pm 19.5 - - - - NNW 22 35 12 19 - - -
29/12:30pm 19.1 - - - - N 22 37 12 20 - - -
29/12:00pm 18.4 - - - - N 24 35 13 19 - - -
29/11:30am 18.0 - - - - N 28 44 15 24 - - -
29/11:00am 17.2 - - - - NNW 24 35 13 19 - - -
29/10:30am 17.2 - - - - NNW 26 41 14 22 - - -
29/10:00am 17.2 - - - - N 20 30 11 16 - - -
29/09:30am 16.9 - - - - WNW 30 43 16 23 - - -
29/09:00am 15.7 - - - - NW 17 30 9 16 - - -
29/08:30am 14.7 - - - - N 24 32 13 17 - - -
29/08:00am 14.5 - - - - N 24 32 13 17 - - -
29/07:30am 14.5 - - - - N 24 30 13 16 - - -
29/07:00am 14.5 - - - - NNW 22 33 12 18 - - -
29/06:30am 14.7 - - - - NW 22 30 12 16 - - -
29/06:00am 14.9 - - - - NW 22 33 12 18 - - -
29/05:30am 14.6 - - - - NNW 17 22 9 12 - - -
29/05:00am 15.0 - - - - NNW 19 28 10 15 - - -
29/04:30am 14.7 - - - - NW 15 32 8 17 - - -
29/04:00am 14.7 - - - - NW 22 32 12 17 - - -
29/03:30am 14.6 - - - - NW 22 35 12 19 - - -
29/03:00am 14.5 - - - - NW 20 30 11 16 - - -
29/02:30am 14.2 - - - - NNW 17 22 9 12 - - -
29/02:00am 14.1 - - - - NNW 20 32 11 17 - - -
29/01:30am 14.0 - - - - N 11 15 6 8 - - -
29/01:00am 14.0 - - - - N 19 20 10 11 - - -
29/12:30am 14.3 - - - - N 17 22 9 12 - - -
29/12:00am 14.5 - - - - N 20 24 11 13 - - -
 
Date/Time
EST
Tmp

°C
App
Tmp
°C
Dew
Point
°C
Rel
Hum
%
Delta-T

°C
Wind Press
QNH
hPa
Press
MSL
hPa
Rain
since
9 am
mm
Dir
 
Spd
km/h
Gust
km/h
Spd
kts
Gust
kts
28/11:30pm 14.5 - - - - NNW 19 24 10 13 - - -

Latest Capital City Observations: Canberra | Sydney | Melbourne | Brisbane | Adelaide | Perth | Hobart | Darwin

Other Formats:

Comma delimited format used in spreadsheet applications
http://www.bom.gov.au/fwo/IDN60901/IDN60901.95766.axf

JavaScript Object Notation format (JSON) in row-major order
http://www.bom.gov.au/fwo/IDN60901/IDN60901.95766.json